Reboly, Russia
Current Conditions -  °F | °C
As of 11:20 AM on Friday 28 Nov 2014 (Local Time) from EFJO Reporting Station
Light Rain Light Rain  
Wind Chill: 26°   Ceiling: 200
Heat Index: 32°   Visibility: 0.31mi
Dew Point: 32°   Wind: 6mph
Humidity: 100%   Direction: 170°S
Pressure: 30.45"   Gusts: NA
Location:  63.83°N, 30.8°E
Report Text: EFJO 280820Z 17005KT 0500 -RA FG VV002 00/00 Q1031
Loading
Personal Weather Stations






























Interactive Weather Map New forecast layout! Learn more

10-Day Weather Forecast

Advertisements
Track Severe Weather on mobile